Time;durP1;ratioP1;P1;durP2;ratioP2;P2;SDS_P1;SDS_P2;PMS_P1;PMS_P2;Temp;Humidity;BMP_temperature;BMP_pressure;BME280_temperature;BME280_humidity;BME280_pressure;Samples;Min_cycle;Max_cycle;Signal;HPM_P1;HPM_P2
2022/01/06 15:17:46;;;;;;;81.75;29.00;;;9.20;67.70;;;;;;5107502;27;20490;-61
2022/01/06 15:20:12;;;;;;;81.22;29.70;;;9.00;62.90;;;;;;5108136;28;20552;-62
2022/01/06 15:22:39;;;;;;;71.05;28.50;;;8.90;63.40;;;;;;5105514;28;20176;-62
2022/01/06 15:25:07;;;;;;;92.75;31.23;;;8.80;63.30;;;;;;5105252;28;20438;-61
2022/01/06 15:27:34;;;;;;;69.03;27.83;;;8.80;63.60;;;;;;5105104;28;20526;-63
2022/01/06 15:30:00;;;;;;;78.15;29.25;;;8.80;64.00;;;;;;5105088;28;20084;-61
2022/01/06 15:32:27;;;;;;;68.28;28.00;;;8.80;64.00;;;;;;5105715;28;20167;-62
2022/01/06 15:34:53;;;;;;;;;;;8.80;64.60;;;;;;5105443;28;20103;-62
2022/01/06 15:37:19;;;;;;;63.53;24.73;;;8.80;63.70;;;;;;5104693;28;20015;-59
2022/01/06 15:39:46;;;;;;;76.28;30.25;;;8.80;63.20;;;;;;5087361;28;20118;-62
2022/01/06 15:42:12;;;;;;;;;;;8.90;62.40;;;;;;5104444;28;20072;-60
2022/01/06 15:44:39;;;;;;;74.78;37.80;;;9.00;60.80;;;;;;5104885;28;20314;-61
2022/01/06 15:47:06;;;;;;;68.95;28.13;;;9.10;59.90;;;;;;5105868;28;20065;-62
2022/01/06 15:49:33;;;;;;;56.60;23.58;;;9.10;59.20;;;;;;5107877;28;20079;-61
2022/01/06 15:51:59;;;;;;;40.47;18.30;;;9.30;58.60;;;;;;5088221;28;20068;-61
2022/01/06 15:54:25;;;;;;;;;;;9.40;57.60;;;;;;5106025;28;20503;-61
2022/01/06 15:56:52;;;;;;;42.00;17.65;;;9.50;55.50;;;;;;5103842;27;20038;-61
2022/01/06 15:59:22;;;;;;;;;;;9.60;55.80;;;;;;5107544;28;20069;-63
2022/01/06 16:07:18;;;;;;;39.90;16.00;;;10.40;52.30;;;;;;5105141;28;20079;-62
2022/01/06 16:09:45;;;;;;;47.33;15.20;;;10.50;51.20;;;;;;5105629;28;20096;-61
2022/01/06 16:12:11;;;;;;;;;;;10.80;51.70;;;;;;5087321;28;20167;-59
2022/01/06 16:14:39;;;;;;;35.90;14.18;;;11.20;51.50;;;;;;5088259;28;19969;-61
2022/01/06 16:17:06;;;;;;;38.67;12.10;;;11.80;50.50;;;;;;5104080;28;20108;-62
2022/01/06 16:19:33;;;;;;;30.77;12.75;;;12.60;49.20;;;;;;5104613;28;20115;-62
2022/01/06 16:21:59;;;;;;;38.75;12.80;;;13.10;47.80;;;;;;5100493;28;20072;-61
2022/01/06 16:24:26;;;;;;;37.13;12.30;;;13.70;46.70;;;;;;5107308;28;20073;-60
2022/01/06 16:26:54;;;;;;;32.80;11.95;;;14.10;45.60;;;;;;5103686;27;20519;-60
2022/01/06 16:29:20;;;;;;;35.03;12.35;;;14.60;43.10;;;;;;5090462;28;20052;-65
2022/01/06 16:31:50;;;;;;;33.17;12.90;;;14.70;43.50;;;;;;5090744;28;20068;-61
2022/01/06 16:34:17;;;;;;;36.42;12.90;;;15.00;42.70;;;;;;5090247;28;20106;-62
2022/01/06 16:36:43;;;;;;;;;;;15.30;43.00;;;;;;5090648;28;20104;-62
2022/01/06 16:39:10;;;;;;;45.17;13.32;;;15.80;42.50;;;;;;5089707;28;19992;-62
2022/01/06 16:41:37;;;;;;;30.23;13.90;;;16.40;42.90;;;;;;5091249;28;20526;-61
2022/01/06 16:44:06;;;;;;;37.60;13.88;;;16.80;41.00;;;;;;5089596;28;20077;-63
2022/01/06 16:46:33;;;;;;;32.42;13.30;;;17.20;40.80;;;;;;5090407;28;20115;-61
2022/01/06 16:49:00;;;;;;;32.33;12.90;;;17.60;40.20;;;;;;5091080;28;20073;-61
2022/01/06 16:51:27;;;;;;;24.42;12.45;;;18.10;38.30;;;;;;5091715;28;20151;-63
2022/01/06 16:53:55;;;;;;;30.10;12.77;;;18.50;36.70;;;;;;5071876;28;20107;-62
2022/01/06 16:56:21;;;;;;;44.60;14.40;;;18.80;37.20;;;;;;5091032;28;20091;-61
2022/01/06 16:58:48;;;;;;;28.50;12.90;;;19.40;36.10;;;;;;5094983;28;20075;-62
2022/01/06 17:01:15;;;;;;;38.95;12.70;;;19.10;34.60;;;;;;5093793;28;20073;-63
2022/01/06 17:03:41;;;;;;;31.33;12.90;;;18.80;34.40;;;;;;5088659;28;20697;-62
2022/01/06 17:06:08;;;;;;;30.20;12.55;;;18.80;34.50;;;;;;5091448;28;20073;-62
2022/01/06 17:08:35;;;;;;;32.22;12.65;;;18.90;35.00;;;;;;5073400;28;20457;-62
2022/01/06 17:11:01;;;;;;;28.13;12.93;;;19.40;35.40;;;;;;5088784;28;20085;-61
2022/01/06 17:13:28;;;;;;;30.77;13.90;;;20.10;33.90;;;;;;5089820;28;20633;-62
2022/01/06 17:15:54;;;;;;;27.73;12.93;;;20.60;32.90;;;;;;5089380;28;20143;-62
2022/01/06 17:18:20;;;;;;;29.13;13.38;;;21.20;31.60;;;;;;5088835;28;20415;-61
2022/01/06 17:20:47;;;;;;;27.23;13.65;;;21.20;30.60;;;;;;5091410;28;20075;-61
2022/01/06 17:23:13;;;;;;;24.20;13.15;;;21.30;30.70;;;;;;5088143;28;20518;-60
2022/01/06 17:25:40;;;;;;;30.42;13.85;;;21.40;30.00;;;;;;5089870;28;20923;-63
2022/01/06 17:28:07;;;;;;;37.72;12.77;;;22.20;30.30;;;;;;5089823;28;20072;-62
2022/01/06 17:30:34;;;;;;;31.13;14.05;;;22.80;29.70;;;;;;5086265;28;20068;-61
2022/01/06 17:33:01;;;;;;;40.95;15.65;;;23.50;28.30;;;;;;5088636;28;20068;-62
2022/01/06 17:35:27;;;;;;;38.75;14.23;;;23.80;28.60;;;;;;5088877;28;20079;-62
2022/01/06 17:37:54;;;;;;;30.40;13.82;;;24.40;27.50;;;;;;5089506;28;20068;-62
2022/01/06 17:40:20;;;;;;;46.80;14.57;;;25.20;26.40;;;;;;5088380;28;20042;-62
2022/01/06 17:42:47;;;;;;;33.85;13.45;;;25.50;26.00;;;;;;5090188;28;20433;-62
2022/01/06 17:45:14;;;;;;;30.58;14.15;;;26.30;25.50;;;;;;5087620;28;20053;-62
2022/01/06 17:47:40;;;;;;;30.00;14.30;;;26.10;25.20;;;;;;5090543;28;20095;-61
2022/01/06 17:50:07;;;;;;;35.65;15.77;;;26.70;31.50;;;;;;5090638;28;20078;-61
2022/01/06 17:52:34;;;;;;;36.00;15.00;;;26.30;25.20;;;;;;5071882;28;20055;-60
2022/01/06 17:55:01;;;;;;;25.10;13.45;;;25.70;33.30;;;;;;5088925;28;20456;-62
2022/01/06 17:57:27;;;;;;;21.95;13.35;;;25.20;34.40;;;;;;5095649;28;20158;-61
2022/01/06 17:59:54;;;;;;;26.98;12.95;;;24.80;25.00;;;;;;5090549;28;20070;-60
2022/01/06 18:02:20;;;;;;;32.28;13.80;;;;;;;;;;5087165;28;20581;-61
2022/01/06 18:04:48;;;;;;;27.10;13.95;;;26.10;24.00;;;;;;5088916;28;20030;-60
2022/01/06 18:07:24;;;;;;;29.95;15.75;;;25.50;23.70;;;;;;5089461;28;20336;-61
2022/01/06 18:12:35;;;;;;;31.65;14.80;;;27.10;26.70;;;;;;5088416;28;20123;-62
2022/01/06 18:15:02;;;;;;;26.20;13.98;;;27.80;23.20;;;;;;5070696;28;20037;-64
2022/01/06 18:17:28;;;;;;;30.13;14.48;;;27.80;23.20;;;;;;5087674;28;20066;-62
2022/01/06 18:19:55;;;;;;;22.00;12.35;;;27.20;23.00;;;;;;5072766;28;20439;-62
2022/01/06 18:22:21;;;;;;;22.60;13.10;;;26.30;32.00;;;;;;5070986;28;20398;-63
2022/01/06 18:24:47;;;;;;;26.70;13.57;;;27.00;54.80;;;;;;5070827;28;20036;-61
2022/01/06 18:27:14;;;;;;;21.27;12.93;;;28.10;30.90;;;;;;5071188;28;20031;-62
2022/01/06 18:29:40;;;;;;;23.42;12.90;;;28.00;36.40;;;;;;5088116;28;20330;-62
2022/01/06 18:32:07;;;;;;;28.63;12.85;;;28.50;39.40;;;;;;5096572;28;20020;-63
2022/01/06 18:34:33;;;;;;;25.75;14.27;;;29.30;21.20;;;;;;5088007;28;20051;-63
2022/01/06 18:37:00;;;;;;;22.17;13.65;;;29.40;21.70;;;;;;5087320;28;20156;-62
2022/01/06 18:39:26;;;;;;;23.67;14.88;;;27.40;21.80;;;;;;5086654;28;20043;-63
2022/01/06 18:41:53;;;;;;;28.42;16.10;;;27.60;22.30;;;;;;5071471;28;20050;-62
2022/01/06 18:44:19;;;;;;;24.98;14.77;;;28.10;23.30;;;;;;5090569;28;20079;-63
2022/01/06 18:46:45;;;;;;;30.55;14.02;;;29.40;21.80;;;;;;5088157;28;20126;-62
2022/01/06 18:49:12;;;;;;;24.95;14.93;;;29.60;21.50;;;;;;5072484;28;20046;-61
2022/01/06 18:51:38;;;;;;;36.65;16.60;;;30.10;21.00;;;;;;5088635;28;20050;-61
2022/01/06 18:54:05;;;;;;;71.63;17.55;;;29.40;20.70;;;;;;5087600;28;20092;-62
2022/01/06 18:56:31;;;;;;;34.55;16.95;;;30.70;21.00;;;;;;5088432;28;20055;-62
2022/01/06 18:59:03;;;;;;;40.88;16.88;;;31.10;20.30;;;;;;5072318;28;20393;-61
2022/01/06 19:01:29;;;;;;;37.92;16.00;;;31.00;20.70;;;;;;5086991;28;20042;-61
2022/01/06 19:03:56;;;;;;;34.67;16.50;;;31.40;20.70;;;;;;5090006;28;20545;-63
2022/01/06 19:06:22;;;;;;;36.63;16.23;;;30.30;19.80;;;;;;5089008;28;20574;-62
2022/01/06 19:08:49;;;;;;;38.60;15.70;;;29.30;21.40;;;;;;5087211;28;20153;-62
2022/01/06 19:11:15;;;;;;;27.92;14.93;;;29.00;21.70;;;;;;5088882;28;20439;-60
2022/01/06 19:13:41;;;;;;;65.97;17.63;;;28.50;21.30;;;;;;5085650;28;20124;-62
2022/01/06 19:16:08;;;;;;;122.18;21.27;;;27.80;22.80;;;;;;5085400;28;20115;-66
2022/01/06 19:18:34;;;;;;;43.65;16.08;;;27.20;22.70;;;;;;5085281;28;20108;-66
2022/01/06 19:21:01;;;;;;;45.72;16.52;;;26.60;24.10;;;;;;5088348;28;20071;-63
2022/01/06 19:23:28;;;;;;;32.17;14.13;;;26.10;23.10;;;;;;5088325;28;20088;-65
2022/01/06 19:25:55;;;;;;;29.55;14.88;;;26.40;22.70;;;;;;5087513;28;20079;-63
2022/01/06 19:28:22;;;;;;;27.38;14.32;;;25.70;22.70;;;;;;5086742;28;20099;-65
2022/01/06 19:30:50;;;;;;;30.98;14.77;;;25.10;23.40;;;;;;5086649;28;20156;-64
2022/01/06 19:33:16;;;;;;;34.10;16.13;;;24.80;24.20;;;;;;5087344;28;20071;-62
2022/01/06 19:35:43;;;;;;;30.88;16.08;;;24.80;24.80;;;;;;5088802;28;20522;-64
2022/01/06 19:38:10;;;;;;;31.42;16.02;;;24.50;24.90;;;;;;5088161;28;20092;-62
2022/01/06 19:40:40;;;;;;;24.77;15.95;;;23.90;25.10;;;;;;5086636;28;20078;-66
2022/01/06 19:43:08;;;;;;;29.38;16.55;;;23.80;25.70;;;;;;5085839;28;20110;-66
2022/01/06 19:45:35;;;;;;;30.05;14.68;;;23.50;25.60;;;;;;5087103;28;20095;-61
2022/01/06 19:48:02;;;;;;;26.55;15.80;;;23.20;25.30;;;;;;5086570;28;20066;-65
2022/01/06 19:50:30;;;;;;;29.45;14.73;;;23.30;25.40;;;;;;5087030;28;20609;-64
2022/01/06 19:52:56;;;;;;;26.58;14.63;;;23.30;25.40;;;;;;5088804;28;20234;-62
2022/01/06 19:55:23;;;;;;;26.73;15.02;;;23.30;25.40;;;;;;5087375;28;20084;-67
2022/01/06 19:57:51;;;;;;;34.63;15.27;;;23.40;25.50;;;;;;5087078;28;20696;-64
2022/01/06 20:00:19;;;;;;;32.78;15.20;;;23.80;26.00;;;;;;5087024;28;20083;-63
2022/01/06 20:02:47;;;;;;;27.13;14.40;;;24.10;25.20;;;;;;5090431;28;20085;-64
2022/01/06 20:05:14;;;;;;;37.55;15.02;;;24.10;24.80;;;;;;5093391;28;20080;-65
2022/01/06 20:07:40;;;;;;;29.65;13.98;;;24.20;24.60;;;;;;5092476;28;20079;-63
2022/01/06 20:10:08;;;;;;;30.55;15.38;;;24.40;24.10;;;;;;5096568;28;20071;-65
2022/01/06 20:12:35;;;;;;;24.25;14.25;;;23.90;24.10;;;;;;5091707;28;20112;-61
2022/01/06 20:15:02;;;;;;;32.90;15.60;;;24.00;24.70;;;;;;5093175;28;20091;-62
2022/01/06 20:17:29;;;;;;;29.40;14.10;;;23.90;24.40;;;;;;5091641;28;20594;-63
2022/01/06 20:19:56;;;;;;;26.15;15.07;;;24.00;24.10;;;;;;5092582;28;20082;-64
2022/01/06 20:22:23;;;;;;;29.17;16.50;;;23.90;24.20;;;;;;5089828;28;20085;-61
2022/01/06 20:24:49;;;;;;;31.60;17.70;;;23.70;24.60;;;;;;5089747;28;20159;-61
2022/01/06 20:27:16;;;;;;;39.70;18.75;;;23.70;24.90;;;;;;5091469;28;20106;-63
2022/01/06 20:29:43;;;;;;;36.30;17.90;;;23.30;25.70;;;;;;5089818;28;20222;-64
2022/01/06 20:32:10;;;;;;;28.63;16.05;;;23.70;25.70;;;;;;5089284;28;20210;-64
2022/01/06 20:34:37;;;;;;;39.67;18.10;;;24.00;24.50;;;;;;5091617;28;20075;-68
2022/01/06 20:37:05;;;;;;;34.78;17.50;;;24.00;24.30;;;;;;5089562;28;20088;-65
2022/01/06 20:39:32;;;;;;;47.22;18.65;;;24.00;24.50;;;;;;5087607;28;20426;-64
2022/01/06 20:41:59;;;;;;;33.58;17.48;;;24.20;25.20;;;;;;5087007;28;20086;-62
2022/01/06 20:44:25;;;;;;;37.42;17.83;;;24.40;24.60;;;;;;5089134;28;20534;-64
2022/01/06 20:46:56;;;;;;;37.63;19.48;;;23.90;24.80;;;;;;5088459;28;20075;-62
2022/01/06 20:52:09;;;;;;;32.13;17.90;;;23.70;24.50;;;;;;5089118;28;20090;-61
2022/01/06 20:54:39;;;;;;;32.45;17.15;;;23.90;24.80;;;;;;5090082;28;20533;-60
2022/01/06 20:57:07;;;;;;;30.80;16.45;;;24.00;25.00;;;;;;5086730;28;20095;-63
2022/01/06 20:59:33;;;;;;;28.95;16.27;;;24.40;25.50;;;;;;5090062;28;20148;-59
2022/01/06 21:02:01;;;;;;;29.08;15.88;;;24.40;23.80;;;;;;5091747;28;20448;-56
2022/01/06 21:04:27;;;;;;;29.92;15.80;;;24.20;23.80;;;;;;5071614;28;20531;-60
2022/01/06 21:06:54;;;;;;;30.48;15.45;;;23.80;24.20;;;;;;5089522;28;20121;-55
2022/01/06 21:09:23;;;;;;;41.08;17.40;;;23.90;24.60;;;;;;5098499;28;20074;-59
2022/01/06 21:11:50;;;;;;;43.92;17.33;;;24.40;25.10;;;;;;5091299;28;20087;-57
2022/01/06 21:14:17;;;;;;;37.72;17.55;;;24.70;24.30;;;;;;5089516;28;20164;-60
2022/01/06 21:16:44;;;;;;;59.63;20.02;;;24.90;23.90;;;;;;5088607;28;20111;-60
2022/01/06 21:19:11;;;;;;;36.35;16.85;;;24.80;24.00;;;;;;5090720;28;20526;-59
2022/01/06 21:21:37;;;;;;;43.40;17.38;;;25.10;24.10;;;;;;5073364;28;20076;-58
2022/01/06 21:24:04;;;;;;;33.20;13.52;;;25.10;23.80;;;;;;5088899;28;20068;-57
2022/01/06 21:26:31;;;;;;;26.70;14.02;;;24.80;23.60;;;;;;5088667;28;20523;-56
2022/01/06 21:28:57;;;;;;;22.20;11.48;;;24.40;23.70;;;;;;5087745;28;20080;-58
2022/01/06 21:31:23;;;;;;;30.92;13.65;;;24.20;24.10;;;;;;5089929;28;20530;-60
2022/01/06 21:33:50;;;;;;;21.83;10.68;;;24.10;25.60;;;;;;5087469;28;20445;-58
2022/01/06 21:36:16;;;;;;;31.48;12.55;;;24.00;23.80;;;;;;5091244;28;20172;-60
2022/01/06 21:38:43;;;;;;;26.92;11.98;;;23.80;25.20;;;;;;5071816;28;20079;-59
2022/01/06 21:41:09;;;;;;;34.40;13.18;;;23.80;25.20;;;;;;5089688;28;20096;-56
2022/01/06 21:43:35;;;;;;;27.75;13.77;;;23.90;26.20;;;;;;5071036;28;20615;-61
2022/01/06 21:46:02;;;;;;;25.33;13.43;;;23.90;25.60;;;;;;5089146;28;20071;-59
2022/01/06 21:48:30;;;;;;;31.73;14.07;;;23.90;26.30;;;;;;5087820;28;20130;-58
2022/01/06 21:50:56;;;;;;;33.30;13.70;;;23.90;26.20;;;;;;5089154;28;20069;-58
2022/01/06 21:53:26;;;;;;;26.73;13.98;;;24.10;26.20;;;;;;5089356;28;20533;-59
2022/01/06 21:55:56;;;;;;;28.17;12.70;;;24.00;23.80;;;;;;5087818;28;20141;-58
2022/01/06 21:58:23;;;;;;;27.38;13.98;;;23.90;23.90;;;;;;5095587;28;20530;-60
2022/01/06 22:00:50;;;;;;;26.02;12.38;;;24.00;25.00;;;;;;5088729;28;20073;-61
2022/01/06 22:03:16;;;;;;;28.33;11.88;;;24.00;25.30;;;;;;5089500;28;20084;-59
2022/01/06 22:05:43;;;;;;;28.48;13.63;;;24.20;24.70;;;;;;5088557;28;20071;-59
2022/01/06 22:08:09;;;;;;;24.00;12.98;;;24.30;24.40;;;;;;5087908;28;20067;-58
2022/01/06 22:10:36;;;;;;;23.17;11.57;;;24.30;24.70;;;;;;5087517;28;20110;-59
2022/01/06 22:13:03;;;;;;;30.60;12.90;;;24.50;24.40;;;;;;5054059;28;20155;-60
2022/01/06 22:15:29;;;;;;;27.10;11.93;;;24.50;23.60;;;;;;5071394;28;20079;-60
2022/01/06 22:17:55;;;;;;;26.67;12.07;;;24.50;23.40;;;;;;5087264;28;20175;-58
2022/01/06 22:20:22;;;;;;;26.42;13.13;;;24.50;24.10;;;;;;5088453;28;20152;-65
2022/01/06 22:22:49;;;;;;;24.80;11.57;;;24.30;23.80;;;;;;5087792;28;20170;-63
2022/01/06 22:25:15;;;;;;;27.20;13.25;;;24.30;24.50;;;;;;5088950;28;20582;-60
2022/01/06 22:27:42;;;;;;;24.67;12.52;;;24.30;23.70;;;;;;5085365;28;20391;-61
2022/01/06 22:30:12;;;;;;;30.75;12.68;;;24.40;24.00;;;;;;5086465;28;20071;-63
2022/01/06 22:32:39;;;;;;;22.25;12.50;;;24.40;24.00;;;;;;5087912;28;20080;-61
2022/01/06 22:35:09;;;;;;;36.08;12.00;;;24.30;23.40;;;;;;5088600;28;20085;-62
2022/01/06 22:37:36;;;;;;;28.60;12.13;;;24.20;24.50;;;;;;5089139;28;20091;-61
2022/01/06 22:40:03;;;;;;;122.72;17.33;;;24.40;24.30;;;;;;5086683;28;20087;-63
2022/01/06 22:42:30;;;;;;;33.78;11.50;;;24.20;24.20;;;;;;5088197;28;20074;-61
2022/01/06 22:44:56;;;;;;;52.90;12.75;;;24.20;24.60;;;;;;5090097;28;20106;-62
2022/01/06 22:47:22;;;;;;;32.45;11.50;;;24.20;24.80;;;;;;5071864;28;20076;-64
2022/01/06 22:49:49;;;;;;;42.42;12.32;;;24.30;23.70;;;;;;5088120;28;20104;-63
2022/01/06 22:52:15;;;;;;;72.07;12.55;;;24.30;24.10;;;;;;5086666;28;20110;-63
2022/01/06 22:54:42;;;;;;;42.20;11.10;;;24.40;24.50;;;;;;5071361;28;20143;-63
2022/01/06 22:57:09;;;;;;;31.88;11.13;;;24.40;24.90;;;;;;5090040;28;20137;-60
2022/01/06 22:59:38;;;;;;;23.77;10.18;;;24.20;24.50;;;;;;5092163;28;20087;-61
2022/01/06 23:02:06;;;;;;;31.27;13.13;;;24.20;23.90;;;;;;5088395;28;20096;-61
2022/01/06 23:04:33;;;;;;;22.70;11.07;;;24.00;23.90;;;;;;5087471;28;20037;-62
2022/01/06 23:06:59;;;;;;;23.42;9.20;;;24.00;24.40;;;;;;5088162;28;20056;-62
2022/01/06 23:09:26;;;;;;;20.17;8.70;;;24.20;24.30;;;;;;5088428;28;20078;-64
2022/01/06 23:11:53;;;;;;;19.40;8.60;;;24.20;24.80;;;;;;5087932;28;20071;-63
2022/01/06 23:14:19;;;;;;;18.88;7.28;;;24.20;24.60;;;;;;5086919;28;20107;-62
2022/01/06 23:16:47;;;;;;;18.65;6.93;;;24.20;24.80;;;;;;5087771;28;20497;-62
2022/01/06 23:19:13;;;;;;;15.88;8.30;;;24.10;26.20;;;;;;5071740;28;20545;-63
2022/01/06 23:21:39;;;;;;;14.65;7.65;;;24.00;24.60;;;;;;5087773;28;20087;-62
2022/01/06 23:24:07;;;;;;;17.85;8.70;;;23.90;24.70;;;;;;5089136;28;20107;-58
2022/01/06 23:26:35;;;;;;;15.55;8.38;;;23.80;25.10;;;;;;5086842;28;20071;-61
2022/01/06 23:29:03;;;;;;;19.08;8.32;;;23.70;24.70;;;;;;5086755;28;20103;-60
2022/01/06 23:31:30;;;;;;;27.40;8.55;;;23.70;25.30;;;;;;5071330;28;20138;-60
2022/01/06 23:33:57;;;;;;;25.40;8.05;;;23.70;26.30;;;;;;5086940;28;20192;-61
2022/01/06 23:36:26;;;;;;;25.02;10.13;;;23.60;26.20;;;;;;5087802;28;20176;-61
2022/01/06 23:38:53;;;;;;;29.90;10.15;;;23.50;26.00;;;;;;5090066;28;20075;-62
2022/01/06 23:41:19;;;;;;;20.15;9.25;;;23.40;26.40;;;;;;5090800;28;20461;-61
2022/01/06 23:43:46;;;;;;;32.15;10.85;;;23.40;26.10;;;;;;5091268;28;20067;-62
2022/01/06 23:46:13;;;;;;;38.25;17.52;;;23.40;27.20;;;;;;5091882;28;20130;-62
2022/01/06 23:48:40;;;;;;;29.50;13.00;;;23.30;27.40;;;;;;5091387;28;20075;-61
2022/01/06 23:51:06;;;;;;;29.88;11.68;;;23.20;29.00;;;;;;5097026;28;20112;-64
2022/01/06 23:53:33;;;;;;;32.28;13.23;;;23.10;29.90;;;;;;5090112;28;20181;-64
2022/01/06 23:55:59;;;;;;;39.75;12.77;;;22.90;29.70;;;;;;5090861;28;20241;-61
2022/01/06 23:58:26;;;;;;;34.03;12.52;;;22.80;29.00;;;;;;5102073;28;20099;-62
